Wetterstation Vordersexau
Wetterdaten: Woche 05.11.18 - 11.11.18 (KW45)
Datum Zeit Temp. A. Feuchte A. Luftdruck Regen Wind Richtung Taupunkt Windchill Windben
05.11.2018 00:00 5,1 C 81 % 1008,0 hPa 0,0 l/m 0,0 km/h W-SW 2,1 C 5,1 C 0,0 km/h
05.11.2018 01:00 4,9 C 80 % 1007,8 hPa 0,0 l/m 0,0 km/h W-SW 1,7 C 4,9 C 0,0 km/h
05.11.2018 02:00 5,2 C 79 % 1007,4 hPa 0,0 l/m 0,0 km/h W-SW 1,9 C 5,2 C 0,0 km/h
05.11.2018 03:00 5,6 C 77 % 1007,0 hPa 0,0 l/m 0,0 km/h W-SW 1,9 C 5,6 C 0,0 km/h
05.11.2018 04:00 6,1 C 77 % 1007,2 hPa 0,0 l/m 0,0 km/h W-SW 2,4 C 6,1 C 0,0 km/h
05.11.2018 05:00 6,6 C 75 % 1007,1 hPa 0,0 l/m 0,0 km/h W-SW 2,5 C 6,6 C 0,0 km/h
05.11.2018 06:00 6,9 C 75 % 1007,0 hPa 0,0 l/m 0,0 km/h W-SW 2,8 C 6,9 C 0,0 km/h
05.11.2018 07:00 7,2 C 74 % 1006,8 hPa 0,0 l/m 0,0 km/h W-SW 2,9 C 7,2 C 0,0 km/h
05.11.2018 08:00 7,5 C 73 % 1007,0 hPa 0,0 l/m 0,0 km/h W-SW 3,0 C 7,5 C 0,0 km/h
05.11.2018 09:00 7,9 C 72 % 1007,2 hPa 0,0 l/m 0,0 km/h W 3,2 C 7,9 C 0,0 km/h
05.11.2018 10:00 7,8 C 74 % 1007,0 hPa 0,0 l/m 0,0 km/h SO 3,5 C 7,8 C 0,0 km/h
05.11.2018 11:00 8,2 C 74 % 1006,5 hPa 0,0 l/m 0,0 km/h SW 3,8 C 8,2 C 0,0 km/h
05.11.2018 12:00 9,1 C 76 % 1005,7 hPa 0,0 l/m 0,0 km/h W-SW 5,1 C 9,1 C 0,0 km/h
05.11.2018 13:00 9,8 C 82 % 1005,8 hPa 0,0 l/m 0,0 km/h W 6,9 C 9,8 C 0,0 km/h
05.11.2018 14:00 9,8 C 83 % 1005,5 hPa 0,0 l/m 0,0 km/h W 7,1 C 9,8 C 0,0 km/h
05.11.2018 15:00 9,8 C 84 % 1005,8 hPa 0,0 l/m 0,0 km/h W 7,2 C 9,8 C 0,0 km/h
05.11.2018 16:00 9,3 C 84 % 1005,4 hPa 0,0 l/m 0,0 km/h W 6,7 C 9,3 C 0,0 km/h
05.11.2018 17:00 7,4 C 84 % 1005,8 hPa 0,0 l/m 0,0 km/h W 4,9 C 7,4 C 0,0 km/h
05.11.2018 18:00 6,4 C 82 % 1006,0 hPa 0,0 l/m 0,0 km/h W 3,6 C 6,4 C 0,0 km/h
05.11.2018 19:00 6,2 C 80 % 1006,0 hPa 0,0 l/m 0,0 km/h W 3,0 C 6,2 C 0,0 km/h
05.11.2018 20:00 6,6 C 78 % 1006,1 hPa 0,0 l/m 0,0 km/h W 3,0 C 6,6 C 0,0 km/h
05.11.2018 21:00 6,1 C 78 % 1006,1 hPa 0,0 l/m 0,0 km/h W 2,6 C 6,1 C 0,0 km/h
05.11.2018 22:00 5,1 C 77 % 1005,9 hPa 0,0 l/m 0,0 km/h W 1,4 C 5,1 C 0,0 km/h
05.11.2018 23:00 5,1 C 77 % 1005,8 hPa 0,0 l/m 0,0 km/h W 1,4 C 5,1 C 0,0 km/h
06.11.2018 00:00 5,2 C 77 % 1005,8 hPa 0,0 l/m 0,0 km/h W 1,5 C 5,2 C 0,0 km/h
06.11.2018 01:00 5,3 C 76 % 1005,5 hPa 0,0 l/m 0,0 km/h W-SW 1,4 C 5,3 C 0,0 km/h
06.11.2018 02:00 5,1 C 75 % 1005,2 hPa 0,0 l/m 0,0 km/h W-SW 1,0 C 5,1 C 0,0 km/h
06.11.2018 03:00 5,1 C 75 % 1005,0 hPa 0,0 l/m 0,0 km/h W 1,0 C 5,1 C 0,0 km/h
06.11.2018 04:00 5,1 C 74 % 1005,1 hPa 0,0 l/m 0,0 km/h W 0,9 C 5,1 C 0,0 km/h
06.11.2018 05:00 5,1 C 73 % 1004,7 hPa 0,0 l/m 0,0 km/h W 0,7 C 5,1 C 0,0 km/h
06.11.2018 06:00 5,3 C 73 % 1005,0 hPa 0,0 l/m 0,0 km/h W 0,9 C 5,3 C 0,0 km/h
06.11.2018 07:00 5,3 C 72 % 1005,1 hPa 0,0 l/m 0,0 km/h W 0,7 C 5,3 C 0,0 km/h
06.11.2018 08:00 5,5 C 69 % 1005,4 hPa 0,0 l/m 0,0 km/h W 0,3 C 5,5 C 0,0 km/h
06.11.2018 09:00 5,8 C 68 % 1005,0 hPa 0,0 l/m 0,0 km/h W 0,4 C 5,8 C 0,0 km/h
06.11.2018 10:00 6,1 C 66 % 1004,5 hPa 0,0 l/m 0,0 km/h W 0,2 C 6,1 C 0,0 km/h
06.11.2018 11:00 6,2 C 65 % 1004,7 hPa 0,0 l/m 0,0 km/h W 0,1 C 6,2 C 0,0 km/h
06.11.2018 12:00 6,5 C 64 % 1004,4 hPa 0,0 l/m 0,0 km/h W-SW 0,2 C 6,5 C 0,0 km/h
06.11.2018 13:00 6,6 C 64 % 1004,9 hPa 0,0 l/m 0,0 km/h W-SW 0,3 C 6,6 C 0,0 km/h
06.11.2018 14:00 6,8 C 64 % 1005,4 hPa 0,0 l/m 5,8 km/h SW 0,5 C 6,8 C 3,2 km/h
06.11.2018 15:00 7,1 C 64 % 1006,2 hPa 0,0 l/m 0,0 km/h O-SO 0,8 C 7,1 C 0,0 km/h
06.11.2018 16:00 7,4 C 64 % 1006,7 hPa 0,0 l/m 0,0 km/h O 1,0 C 7,4 C 0,0 km/h
06.11.2018 17:00 7,8 C 63 % 1008,0 hPa 0,0 l/m 0,0 km/h O-SO 1,2 C 7,8 C 0,0 km/h
06.11.2018 18:00 8,4 C 63 % 1008,1 hPa 0,0 l/m 0,0 km/h O 1,8 C 8,4 C 0,0 km/h
06.11.2018 19:00 9,0 C 66 % 1008,1 hPa 0,0 l/m 0,0 km/h O-SO 3,0 C 9,0 C 0,0 km/h
06.11.2018 20:00 8,5 C 71 % 1008,1 hPa 0,0 l/m 0,0 km/h O-SO 3,5 C 8,5 C 0,0 km/h
06.11.2018 21:00 7,9 C 76 % 1008,5 hPa 0,0 l/m 0,0 km/h O-SO 3,9 C 7,9 C 0,0 km/h
06.11.2018 22:00 7,3 C 77 % 1008,6 hPa 0,0 l/m 0,0 km/h O-NO 3,5 C 7,3 C 0,0 km/h
06.11.2018 23:00 6,9 C 77 % 1008,5 hPa 0,0 l/m 0,0 km/h O 3,2 C 6,9 C 0,0 km/h
07.11.2018 00:00 6,6 C 79 % 1008,6 hPa 0,0 l/m 0,0 km/h O-NO 3,2 C 6,6 C 0,0 km/h
07.11.2018 01:00 6,3 C 80 % 1008,4 hPa 0,0 l/m 0,0 km/h O 3,1 C 6,3 C 0,0 km/h
07.11.2018 02:00 6,2 C 81 % 1008,4 hPa 0,0 l/m 0,0 km/h O-SO 3,2 C 6,2 C 0,0 km/h
07.11.2018 03:00 5,9 C 82 % 1008,2 hPa 0,0 l/m 0,0 km/h O 3,1 C 5,9 C 0,0 km/h
07.11.2018 04:00 5,3 C 82 % 1007,7 hPa 0,0 l/m 0,0 km/h O 2,5 C 5,3 C 0,0 km/h
07.11.2018 05:00 5,6 C 82 % 1007,8 hPa 0,0 l/m 0,0 km/h N-NO 2,8 C 5,6 C 0,0 km/h
07.11.2018 06:00 5,6 C 82 % 1008,0 hPa 0,0 l/m 1,3 km/h N-NO 2,8 C 5,6 C 0,7 km/h
07.11.2018 07:00 4,2 C 82 % 1008,4 hPa 0,0 l/m 0,0 km/h NO 1,4 C 4,2 C 0,0 km/h
07.11.2018 08:00 6,8 C 84 % 1008,4 hPa 0,0 l/m 0,0 km/h N-NO 4,3 C 6,8 C 0,0 km/h
07.11.2018 09:00 8,9 C 85 % 1008,8 hPa 0,0 l/m 0,0 km/h N-NO 6,5 C 8,9 C 0,0 km/h
07.11.2018 10:00 11,2 C 84 % 1008,8 hPa 0,0 l/m 0,0 km/h W-SW 8,6 C 11,2 C 0,0 km/h
07.11.2018 11:00 12,9 C 80 % 1008,7 hPa 0,0 l/m 0,0 km/h S-SW 9,5 C 12,9 C 0,0 km/h
07.11.2018 12:00 14,4 C 76 % 1008,5 hPa 0,0 l/m 0,0 km/h S-SO 10,2 C 14,4 C 0,0 km/h
07.11.2018 13:00 14,9 C 70 % 1008,6 hPa 0,0 l/m 0,0 km/h S-SO 9,5 C 14,9 C 0,0 km/h
07.11.2018 14:00 14,3 C 72 % 1009,1 hPa 0,0 l/m 0,0 km/h S-SO 9,3 C 14,3 C 0,0 km/h
07.11.2018 15:00 13,2 C 77 % 1009,6 hPa 0,0 l/m 0,0 km/h S-SO 9,3 C 13,2 C 0,0 km/h
07.11.2018 16:00 11,8 C 79 % 1010,0 hPa 0,0 l/m 0,0 km/h O-SO 8,3 C 11,8 C 0,0 km/h
07.11.2018 17:00 11,3 C 80 % 1010,9 hPa 0,0 l/m 0,0 km/h O 8,0 C 11,3 C 0,0 km/h
07.11.2018 18:00 10,9 C 82 % 1012,2 hPa 0,0 l/m 0,0 km/h SW 7,9 C 10,9 C 0,0 km/h
07.11.2018 19:00 12,1 C 81 % 1012,3 hPa 0,0 l/m 32,4 km/h S-SW 8,9 C 3,2 C 18,0 km/h
07.11.2018 20:00 12,6 C 77 % 1013,5 hPa 0,0 l/m 20,7 km/h S 8,7 C 6,4 C 11,5 km/h
07.11.2018 21:00 11,5 C 80 % 1014,0 hPa 0,0 l/m 0,0 km/h S 8,2 C 11,5 C 0,0 km/h
07.11.2018 22:00 10,5 C 83 % 1014,3 hPa 0,0 l/m 0,0 km/h O-NO 7,7 C 10,5 C 0,0 km/h
07.11.2018 23:00 9,8 C 84 % 1014,3 hPa 0,0 l/m 0,0 km/h O-NO 7,2 C 9,8 C 0,0 km/h
08.11.2018 00:00 9,8 C 84 % 1015,6 hPa 0,0 l/m 0,0 km/h O-NO 7,2 C 9,8 C 0,0 km/h
08.11.2018 01:00 9,8 C 83 % 1016,3 hPa 0,0 l/m 0,0 km/h S 7,1 C 9,8 C 0,0 km/h
08.11.2018 02:00 10,6 C 82 % 1017,1 hPa 0,5 l/m 0,0 km/h S-SW 7,7 C 10,6 C 0,0 km/h
08.11.2018 03:00 10,7 C 84 % 1017,4 hPa 0,0 l/m 20,7 km/h S 8,1 C 4,0 C 11,5 km/h
08.11.2018 04:00 10,8 C 83 % 1017,9 hPa 0,0 l/m 13,0 km/h S-SW 8,0 C 7,0 C 7,2 km/h
08.11.2018 05:00 10,9 C 81 % 1018,2 hPa 0,0 l/m 9,1 km/h S-SW 7,8 C 9,1 C 5,0 km/h
08.11.2018 06:00 10,2 C 81 % 1018,3 hPa 0,0 l/m 0,0 km/h NO 7,1 C 10,2 C 0,0 km/h
08.11.2018 07:00 8,9 C 84 % 1019,3 hPa 0,0 l/m 0,0 km/h NO 6,3 C 8,9 C 0,0 km/h
08.11.2018 08:00 9,2 C 84 % 1019,3 hPa 0,0 l/m 0,0 km/h N-NW 6,6 C 9,2 C 0,0 km/h
08.11.2018 09:00 11,8 C 83 % 1019,1 hPa 0,0 l/m 0,0 km/h W-NW 9,0 C 11,8 C 0,0 km/h
08.11.2018 10:00 12,4 C 78 % 1019,5 hPa 0,0 l/m 0,0 km/h W-NW 8,7 C 12,4 C 0,0 km/h
08.11.2018 11:00 12,4 C 78 % 1018,8 hPa 0,0 l/m 0,0 km/h N-NW 8,7 C 12,4 C 0,0 km/h
08.11.2018 12:00 13,1 C 73 % 1018,2 hPa 0,0 l/m 0,0 km/h O 8,4 C 13,1 C 0,0 km/h
08.11.2018 13:00 12,7 C 75 % 1017,7 hPa 0,0 l/m 0,0 km/h O-NO 8,4 C 12,7 C 0,0 km/h
08.11.2018 14:00 12,8 C 76 % 1017,1 hPa 0,0 l/m 0,0 km/h O-NO 8,7 C 12,8 C 0,0 km/h
08.11.2018 15:00 12,4 C 77 % 1016,5 hPa 0,0 l/m 0,0 km/h O-NO 8,5 C 12,4 C 0,0 km/h
08.11.2018 16:00 11,8 C 80 % 1016,1 hPa 0,0 l/m 0,0 km/h O-NO 8,5 C 11,8 C 0,0 km/h
08.11.2018 17:00 10,9 C 82 % 1015,7 hPa 0,0 l/m 0,0 km/h O-NO 7,9 C 10,9 C 0,0 km/h
08.11.2018 18:00 10,2 C 82 % 1015,8 hPa 0,0 l/m 0,0 km/h O 7,3 C 10,2 C 0,0 km/h
08.11.2018 19:00 10,2 C 83 % 1015,1 hPa 0,0 l/m 0,0 km/h O-SO 7,4 C 10,2 C 0,0 km/h
08.11.2018 20:00 9,5 C 83 % 1014,9 hPa 0,0 l/m 0,0 km/h O-SO 6,8 C 9,5 C 0,0 km/h
08.11.2018 21:00 8,8 C 84 % 1015,0 hPa 0,0 l/m 0,0 km/h O 6,2 C 8,8 C 0,0 km/h
08.11.2018 22:00 8,2 C 84 % 1015,2 hPa 0,0 l/m 0,0 km/h O 5,7 C 8,2 C 0,0 km/h
08.11.2018 23:00 8,1 C 84 % 1014,6 hPa 0,0 l/m 0,0 km/h O 5,6 C 8,1 C 0,0 km/h
09.11.2018 00:00 7,6 C 84 % 1014,1 hPa 0,0 l/m 0,0 km/h O 5,1 C 7,6 C 0,0 km/h
09.11.2018 01:00 7,6 C 83 % 1013,7 hPa 0,0 l/m 0,0 km/h O 4,9 C 7,6 C 0,0 km/h
09.11.2018 02:00 7,5 C 83 % 1013,6 hPa 0,0 l/m 0,0 km/h O 4,8 C 7,5 C 0,0 km/h
09.11.2018 03:00 6,9 C 83 % 1013,9 hPa 0,0 l/m 0,0 km/h O-SO 4,2 C 6,9 C 0,0 km/h
09.11.2018 04:00 7,3 C 82 % 1013,7 hPa 0,0 l/m 0,0 km/h O-SO 4,4 C 7,3 C 0,0 km/h
09.11.2018 05:00 7,3 C 82 % 1013,4 hPa 0,0 l/m 0,0 km/h O-SO 4,4 C 7,3 C 0,0 km/h
09.11.2018 06:00 6,9 C 82 % 1013,4 hPa 0,0 l/m 0,0 km/h O-SO 4,0 C 6,9 C 0,0 km/h
09.11.2018 07:00 6,6 C 82 % 1013,6 hPa 0,0 l/m 0,0 km/h O-SO 3,8 C 6,6 C 0,0 km/h
09.11.2018 08:00 7,4 C 80 % 1013,8 hPa 0,0 l/m 0,0 km/h O-NO 4,2 C 7,4 C 0,0 km/h
09.11.2018 09:00 8,5 C 81 % 1013,8 hPa 0,0 l/m 0,0 km/h O-NO 5,4 C 8,5 C 0,0 km/h
09.11.2018 10:00 10,5 C 82 % 1013,5 hPa 0,0 l/m 0,0 km/h SW 7,6 C 10,5 C 0,0 km/h
09.11.2018 11:00 12,4 C 84 % 1013,1 hPa 0,0 l/m 0,0 km/h S-SW 9,8 C 12,4 C 0,0 km/h
09.11.2018 12:00 13,9 C 80 % 1012,6 hPa 0,0 l/m 0,0 km/h W-SW 10,5 C 13,9 C 0,0 km/h
09.11.2018 13:00 14,3 C 77 % 1011,8 hPa 0,0 l/m 0,0 km/h W 10,3 C 14,3 C 0,0 km/h
09.11.2018 14:00 15,3 C 73 % 1011,3 hPa 0,0 l/m 0,0 km/h S-SW 10,5 C 15,3 C 0,0 km/h
09.11.2018 15:00 15,2 C 73 % 1010,6 hPa 0,0 l/m 0,0 km/h S 10,4 C 15,2 C 0,0 km/h
09.11.2018 16:00 13,9 C 74 % 1010,4 hPa 0,0 l/m 0,0 km/h O-NO 9,3 C 13,9 C 0,0 km/h
09.11.2018 17:00 10,3 C 82 % 1010,8 hPa 0,0 l/m 0,0 km/h O-NO 7,4 C 10,3 C 0,0 km/h
09.11.2018 18:00 8,7 C 84 % 1011,3 hPa 0,0 l/m 0,0 km/h O-NO 6,2 C 8,7 C 0,0 km/h
09.11.2018 19:00 8,1 C 84 % 1010,9 hPa 0,0 l/m 0,0 km/h O 5,6 C 8,1 C 0,0 km/h
09.11.2018 20:00 7,6 C 84 % 1010,5 hPa 0,0 l/m 0,0 km/h O-SO 5,1 C 7,6 C 0,0 km/h
09.11.2018 21:00 7,3 C 84 % 1010,0 hPa 0,0 l/m 0,0 km/h O 4,8 C 7,3 C 0,0 km/h
09.11.2018 22:00 6,4 C 84 % 1009,7 hPa 0,0 l/m 0,0 km/h O 3,9 C 6,4 C 0,0 km/h
09.11.2018 23:00 5,8 C 84 % 1009,6 hPa 0,0 l/m 0,0 km/h O-NO 3,3 C 5,8 C 0,0 km/h
10.11.2018 00:00 5,5 C 83 % 1008,5 hPa 0,0 l/m 0,0 km/h O-NO 2,8 C 5,5 C 0,0 km/h
10.11.2018 01:00 5,5 C 83 % 1008,1 hPa 0,0 l/m 0,0 km/h O-NO 2,8 C 5,5 C 0,0 km/h
10.11.2018 02:00 6,3 C 81 % 1007,8 hPa 0,0 l/m 0,0 km/h O-NO 3,3 C 6,3 C 0,0 km/h
10.11.2018 03:00 6,0 C 83 % 1007,4 hPa 0,0 l/m 0,0 km/h O-NO 3,3 C 6,0 C 0,0 km/h
10.11.2018 04:00 6,2 C 83 % 1006,6 hPa 0,0 l/m 0,0 km/h O-NO 3,5 C 6,2 C 0,0 km/h
10.11.2018 05:00 6,3 C 83 % 1006,6 hPa 0,0 l/m 0,0 km/h O-NO 3,6 C 6,3 C 0,0 km/h
10.11.2018 06:00 6,7 C 82 % 1006,5 hPa 0,0 l/m 0,0 km/h O-SO 3,8 C 6,7 C 0,0 km/h
10.11.2018 07:00 7,0 C 83 % 1007,0 hPa 0,0 l/m 0,0 km/h SO 4,3 C 7,0 C 0,0 km/h
10.11.2018 08:00 7,8 C 83 % 1006,6 hPa 0,0 l/m 0,0 km/h SO 5,1 C 7,8 C 0,0 km/h
10.11.2018 09:00 8,9 C 84 % 1006,8 hPa 0,0 l/m 0,0 km/h SO 6,3 C 8,9 C 0,0 km/h
10.11.2018 10:00 9,6 C 85 % 1006,8 hPa 0,0 l/m 0,0 km/h O 7,2 C 9,6 C 0,0 km/h
10.11.2018 11:00 10,9 C 84 % 1006,2 hPa 0,0 l/m 0,0 km/h W-SW 8,3 C 10,9 C 0,0 km/h
10.11.2018 12:00 12,7 C 83 % 1006,1 hPa 0,0 l/m 0,0 km/h S-SO 9,9 C 12,7 C 0,0 km/h
10.11.2018 13:00 13,8 C 80 % 1005,9 hPa 0,0 l/m 0,0 km/h S 10,4 C 13,8 C 0,0 km/h
10.11.2018 14:00 14,6 C 77 % 1005,8 hPa 0,0 l/m 0,0 km/h SW 10,6 C 14,6 C 0,0 km/h
10.11.2018 15:00 14,9 C 74 % 1006,1 hPa 0,0 l/m 0,0 km/h SO 10,3 C 14,9 C 0,0 km/h
10.11.2018 16:00 13,9 C 76 % 1005,9 hPa 0,0 l/m 0,0 km/h SO 9,7 C 13,9 C 0,0 km/h
10.11.2018 17:00 12,3 C 83 % 1005,4 hPa 0,0 l/m 0,0 km/h S 9,5 C 12,3 C 0,0 km/h
10.11.2018 18:00 13,4 C 79 % 1005,4 hPa 0,0 l/m 0,0 km/h NO 9,8 C 13,4 C 0,0 km/h
10.11.2018 19:00 12,4 C 81 % 1006,9 hPa 0,0 l/m 0,0 km/h O-SO 9,2 C 12,4 C 0,0 km/h
10.11.2018 20:00 11,2 C 84 % 1006,5 hPa 1,0 l/m 0,0 km/h SO 8,6 C 11,2 C 0,0 km/h
10.11.2018 21:00 10,8 C 84 % 1007,2 hPa 0,5 l/m 0,0 km/h SO 8,2 C 10,8 C 0,0 km/h
10.11.2018 22:00 10,6 C 82 % 1007,3 hPa 1,0 l/m 0,0 km/h SO 7,7 C 10,6 C 0,0 km/h
10.11.2018 23:00 10,8 C 78 % 1007,0 hPa 1,0 l/m 0,0 km/h SO 7,1 C 10,8 C 0,0 km/h
11.11.2018 00:00 10,9 C 76 % 1007,6 hPa 0,5 l/m 0,0 km/h O-NO 6,8 C 10,9 C 0,0 km/h
11.11.2018 01:00 10,9 C 74 % 1007,7 hPa 0,5 l/m 0,0 km/h NO 6,5 C 10,9 C 0,0 km/h
11.11.2018 02:00 10,8 C 72 % 1007,5 hPa 0,0 l/m 0,0 km/h O-NO 6,0 C 10,8 C 0,0 km/h
11.11.2018 03:00 10,7 C 71 % 1007,5 hPa 0,0 l/m 1,3 km/h O 5,7 C 10,7 C 0,7 km/h
11.11.2018 04:00 10,4 C 71 % 1007,1 hPa 0,0 l/m 0,0 km/h O-SO 5,4 C 10,4 C 0,0 km/h
11.11.2018 05:00 10,4 C 71 % 1007,3 hPa 0,0 l/m 0,0 km/h SW 5,4 C 10,4 C 0,0 km/h
11.11.2018 06:00 10,4 C 71 % 1009,7 hPa 2,1 l/m 22,0 km/h S 5,4 C 3,2 C 12,2 km/h
11.11.2018 07:00 10,4 C 70 % 1010,1 hPa 1,0 l/m 0,0 km/h SW 5,2 C 10,4 C 0,0 km/h
11.11.2018 08:00 10,5 C 69 % 1010,5 hPa 0,0 l/m 0,0 km/h NO 5,1 C 10,5 C 0,0 km/h
11.11.2018 09:00 11,3 C 68 % 1010,7 hPa 0,0 l/m 0,0 km/h NO 5,6 C 11,3 C 0,0 km/h
11.11.2018 10:00 12,2 C 72 % 1011,1 hPa 0,0 l/m 0,0 km/h S-SO 7,3 C 12,2 C 0,0 km/h
11.11.2018 11:00 12,8 C 75 % 1010,9 hPa 0,0 l/m 0,0 km/h SO 8,5 C 12,8 C 0,0 km/h
11.11.2018 12:00 13,8 C 83 % 1010,8 hPa 0,0 l/m 0,0 km/h SO 11,0 C 13,8 C 0,0 km/h
11.11.2018 13:00 14,9 C 83 % 1010,9 hPa 0,0 l/m 0,0 km/h SO 12,0 C 14,9 C 0,0 km/h
11.11.2018 14:00 15,5 C 80 % 1010,5 hPa 0,0 l/m 12,3 km/h S-SO 12,1 C 12,7 C 6,8 km/h
11.11.2018 15:00 15,8 C 77 % 1009,9 hPa 0,0 l/m 16,2 km/h NO 11,8 C 11,8 C 9,0 km/h
11.11.2018 16:00 13,9 C 80 % 1010,1 hPa 0,0 l/m 0,0 km/h O-SO 10,5 C 13,9 C 0,0 km/h
11.11.2018 17:00 12,3 C 84 % 1010,7 hPa 0,0 l/m 0,0 km/h O-NO 9,7 C 12,3 C 0,0 km/h
11.11.2018 18:00 11,4 C 84 % 1011,1 hPa 0,0 l/m 0,0 km/h O-NO 8,8 C 11,4 C 0,0 km/h
11.11.2018 19:00 10,8 C 84 % 1011,8 hPa 0,0 l/m 0,0 km/h O-NO 8,2 C 10,8 C 0,0 km/h
11.11.2018 20:00 10,8 C 84 % 1012,1 hPa 0,0 l/m 0,0 km/h NO 8,2 C 10,8 C 0,0 km/h
11.11.2018 21:00 10,1 C 84 % 1012,7 hPa 0,0 l/m 0,0 km/h O-SO 7,5 C 10,1 C 0,0 km/h
11.11.2018 22:00 10,2 C 84 % 1012,9 hPa 0,0 l/m 0,0 km/h O-SO 7,6 C 10,2 C 0,0 km/h
11.11.2018 23:00 9,8 C 84 % 1013,0 hPa 0,0 l/m 13,0 km/h NO 7,2 C 5,8 C 7,2 km/h
Min-Datum _ 07.11.18 06.11.18 06.11.18 - 05.11.18 - 06.11.18 07.11.18 05.11.18
_ Min-Zeit 07:53 17:53 12:53 - 00:53 - 11:53 19:53 00:53
Minimum _ 4,2 C 63 % 1004,4 hPa - 0,0 km/h - 0,1 C 3,2 C 0,0 km/h
Max-Datum _ 11.11.18 07.11.18 08.11.18 11.11.18 07.11.18 - 11.11.18 09.11.18 07.11.18
_ Max-Zeit 15:53 09:53 10:53 06:53 19:53 - 14:53 14:53 19:53
Maximum _ 15,8 C 85 % 1019,5 hPa 2,1 l/m 32,4 km/h
S-SW
- 12,1 C 15,3 C 18,0 km/h
S-SW
Durchschnitt _ 9,3 C 78 % 1009,8 hPa #8,3 l/m 1,0 km/h O-NO 5,7 C 9,0 C 0,6 km/h
www.sexauwetter.de